sensor_id;sensor_type;location;lat;lon;timestamp;temperature;humidity
13808;DHT22;40769;51.512;5.494;2023-02-22T00:00:49;10.50;99.90
13808;DHT22;40769;51.512;5.494;2023-02-22T00:03:17;10.40;99.90
13808;DHT22;40769;51.512;5.494;2023-02-22T00:05:45;9.60;99.90
13808;DHT22;40769;51.512;5.494;2023-02-22T00:08:20;10.50;99.90
13808;DHT22;40769;51.512;5.494;2023-02-22T00:10:46;10.50;99.90
13808;DHT22;40769;51.512;5.494;2023-02-22T00:13:16;10.40;99.90
13808;DHT22;40769;51.512;5.494;2023-02-22T00:15:42;10.40;99.90
13808;DHT22;40769;51.512;5.494;2023-02-22T00:18:11;10.40;99.90
13808;DHT22;40769;51.512;5.494;2023-02-22T00:20:38;10.40;99.90
13808;DHT22;40769;51.512;5.494;2023-02-22T00:23:06;10.40;99.90
13808;DHT22;40769;51.512;5.494;2023-02-22T00:25:33;10.40;99.90
13808;DHT22;40769;51.512;5.494;2023-02-22T00:28:00;10.30;99.90
13808;DHT22;40769;51.512;5.494;2023-02-22T00:30:28;10.40;99.90
13808;DHT22;40769;51.512;5.494;2023-02-22T00:32:55;10.30;99.90
13808;DHT22;40769;51.512;5.494;2023-02-22T00:35:26;10.70;99.90
13808;DHT22;40769;51.512;5.494;2023-02-22T00:37:55;10.30;99.90
13808;DHT22;40769;51.512;5.494;2023-02-22T00:40:23;10.30;99.90
13808;DHT22;40769;51.512;5.494;2023-02-22T00:42:50;10.60;99.90
13808;DHT22;40769;51.512;5.494;2023-02-22T00:45:19;10.20;99.90
13808;DHT22;40769;51.512;5.494;2023-02-22T00:47:45;10.30;99.90
13808;DHT22;40769;51.512;5.494;2023-02-22T00:50:12;10.30;99.90
13808;DHT22;40769;51.512;5.494;2023-02-22T00:52:38;11.50;99.90
13808;DHT22;40769;51.512;5.494;2023-02-22T00:55:06;10.20;99.90
13808;DHT22;40769;51.512;5.494;2023-02-22T00:57:32;10.30;99.90
13808;DHT22;40769;51.512;5.494;2023-02-22T01:00:00;10.20;99.90
13808;DHT22;40769;51.512;5.494;2023-02-22T01:02:36;10.20;99.90
13808;DHT22;40769;51.512;5.494;2023-02-22T01:05:03;9.20;99.90
13808;DHT22;40769;51.512;5.494;2023-02-22T01:07:29;10.20;99.90
13808;DHT22;40769;51.512;5.494;2023-02-22T01:09:54;10.10;99.90
13808;DHT22;40769;51.512;5.494;2023-02-22T01:12:20;10.20;99.90
13808;DHT22;40769;51.512;5.494;2023-02-22T01:14:45;10.10;99.90
13808;DHT22;40769;51.512;5.494;2023-02-22T01:17:11;10.10;99.90
13808;DHT22;40769;51.512;5.494;2023-02-22T01:19:37;10.10;99.90
13808;DHT22;40769;51.512;5.494;2023-02-22T01:22:07;10.50;99.90
13808;DHT22;40769;51.512;5.494;2023-02-22T01:24:33;10.10;99.90
13808;DHT22;40769;51.512;5.494;2023-02-22T01:26:58;10.10;99.90
13808;DHT22;40769;51.512;5.494;2023-02-22T01:29:24;10.10;99.90
13808;DHT22;40769;51.512;5.494;2023-02-22T01:31:52;10.10;99.90
13808;DHT22;40769;51.512;5.494;2023-02-22T01:34:20;10.10;99.90
13808;DHT22;40769;51.512;5.494;2023-02-22T01:36:46;10.00;99.90
13808;DHT22;40769;51.512;5.494;2023-02-22T01:39:11;10.00;99.90
13808;DHT22;40769;51.512;5.494;2023-02-22T01:41:37;11.00;99.90
13808;DHT22;40769;51.512;5.494;2023-02-22T01:46:54;10.00;99.90
13808;DHT22;40769;51.512;5.494;2023-02-22T01:49:20;10.00;99.90
13808;DHT22;40769;51.512;5.494;2023-02-22T01:51:49;10.00;99.90
13808;DHT22;40769;51.512;5.494;2023-02-22T01:54:32;10.00;99.90
13808;DHT22;40769;51.512;5.494;2023-02-22T01:57:32;10.00;99.90
13808;DHT22;40769;51.512;5.494;2023-02-22T02:00:06;10.00;99.90
13808;DHT22;40769;51.512;5.494;2023-02-22T02:02:37;9.90;99.90
13808;DHT22;40769;51.512;5.494;2023-02-22T02:05:06;10.00;99.90
13808;DHT22;40769;51.512;5.494;2023-02-22T02:07:33;9.90;99.90
13808;DHT22;40769;51.512;5.494;2023-02-22T02:10:05;10.10;99.90
13808;DHT22;40769;51.512;5.494;2023-02-22T02:12:34;9.90;99.90
13808;DHT22;40769;51.512;5.494;2023-02-22T02:15:23;11.10;99.90
13808;DHT22;40769;51.512;5.494;2023-02-22T02:17:51;9.90;99.90
13808;DHT22;40769;51.512;5.494;2023-02-22T02:23:48;9.90;99.90
13808;DHT22;40769;51.512;5.494;2023-02-22T02:42:30;9.90;99.90
13808;DHT22;40769;51.512;5.494;2023-02-22T02:45:16;9.80;99.90
13808;DHT22;40769;51.512;5.494;2023-02-22T02:47:50;9.90;99.90
13808;DHT22;40769;51.512;5.494;2023-02-22T02:50:22;9.90;99.90
13808;DHT22;40769;51.512;5.494;2023-02-22T02:52:52;9.90;99.90
13808;DHT22;40769;51.512;5.494;2023-02-22T02:55:20;9.90;99.90
13808;DHT22;40769;51.512;5.494;2023-02-22T02:57:46;9.80;99.90
13808;DHT22;40769;51.512;5.494;2023-02-22T03:00:16;9.90;99.90
13808;DHT22;40769;51.512;5.494;2023-02-22T03:05:56;9.80;99.90
13808;DHT22;40769;51.512;5.494;2023-02-22T03:11:14;9.70;99.90
13808;DHT22;40769;51.512;5.494;2023-02-22T03:13:52;9.70;99.90
13808;DHT22;40769;51.512;5.494;2023-02-22T03:21:45;9.70;99.90
13808;DHT22;40769;51.512;5.494;2023-02-22T03:24:20;9.60;99.90
13808;DHT22;40769;51.512;5.494;2023-02-22T03:27:11;9.60;99.90
13808;DHT22;40769;51.512;5.494;2023-02-22T03:29:41;9.60;99.90
13808;DHT22;40769;51.512;5.494;2023-02-22T03:32:10;9.90;99.90
13808;DHT22;40769;51.512;5.494;2023-02-22T03:34:45;9.40;99.90
13808;DHT22;40769;51.512;5.494;2023-02-22T03:37:21;9.40;99.90
13808;DHT22;40769;51.512;5.494;2023-02-22T03:39:50;10.10;99.90
13808;DHT22;40769;51.512;5.494;2023-02-22T03:42:31;9.80;99.90
13808;DHT22;40769;51.512;5.494;2023-02-22T03:45:00;9.50;99.90
13808;DHT22;40769;51.512;5.494;2023-02-22T03:47:38;9.50;99.90
13808;DHT22;40769;51.512;5.494;2023-02-22T03:50:24;9.60;99.90
13808;DHT22;40769;51.512;5.494;2023-02-22T03:52:51;9.60;99.90
13808;DHT22;40769;51.512;5.494;2023-02-22T03:55:17;10.60;99.90
13808;DHT22;40769;51.512;5.494;2023-02-22T03:57:52;9.30;99.90
13808;DHT22;40769;51.512;5.494;2023-02-22T04:00:22;9.50;99.90
13808;DHT22;40769;51.512;5.494;2023-02-22T04:02:48;9.50;99.90
13808;DHT22;40769;51.512;5.494;2023-02-22T04:05:14;9.50;99.90
13808;DHT22;40769;51.512;5.494;2023-02-22T04:07:41;9.50;99.90
13808;DHT22;40769;51.512;5.494;2023-02-22T04:10:06;9.70;99.90
13808;DHT22;40769;51.512;5.494;2023-02-22T04:12:35;9.50;99.90
13808;DHT22;40769;51.512;5.494;2023-02-22T04:15:02;9.60;99.90
13808;DHT22;40769;51.512;5.494;2023-02-22T04:17:28;10.50;99.90
13808;DHT22;40769;51.512;5.494;2023-02-22T04:19:54;9.50;99.90
13808;DHT22;40769;51.512;5.494;2023-02-22T04:22:19;10.10;99.90
13808;DHT22;40769;51.512;5.494;2023-02-22T04:24:46;9.50;99.90
13808;DHT22;40769;51.512;5.494;2023-02-22T04:27:13;9.90;99.90
13808;DHT22;40769;51.512;5.494;2023-02-22T04:29:39;9.50;99.90
13808;DHT22;40769;51.512;5.494;2023-02-22T04:32:04;10.20;99.90
13808;DHT22;40769;51.512;5.494;2023-02-22T04:34:30;9.50;99.90
13808;DHT22;40769;51.512;5.494;2023-02-22T04:36:55;9.40;99.90
13808;DHT22;40769;51.512;5.494;2023-02-22T04:39:21;9.40;99.90
13808;DHT22;40769;51.512;5.494;2023-02-22T04:41:47;9.30;99.90
13808;DHT22;40769;51.512;5.494;2023-02-22T04:44:13;9.40;99.90
13808;DHT22;40769;51.512;5.494;2023-02-22T04:46:39;9.40;99.90
13808;DHT22;40769;51.512;5.494;2023-02-22T04:49:04;9.60;99.90
13808;DHT22;40769;51.512;5.494;2023-02-22T04:51:30;9.40;99.90
13808;DHT22;40769;51.512;5.494;2023-02-22T04:53:56;10.10;99.90
13808;DHT22;40769;51.512;5.494;2023-02-22T04:56:22;9.40;99.90
13808;DHT22;40769;51.512;5.494;2023-02-22T04:58:47;9.40;99.90
13808;DHT22;40769;51.512;5.494;2023-02-22T05:01:14;9.40;99.90
13808;DHT22;40769;51.512;5.494;2023-02-22T05:03:40;9.40;99.90
13808;DHT22;40769;51.512;5.494;2023-02-22T05:06:06;9.40;99.90
13808;DHT22;40769;51.512;5.494;2023-02-22T05:08:32;9.30;99.90
13808;DHT22;40769;51.512;5.494;2023-02-22T05:10:57;9.40;99.90
13808;DHT22;40769;51.512;5.494;2023-02-22T05:13:23;9.30;99.90
13808;DHT22;40769;51.512;5.494;2023-02-22T05:15:49;9.40;99.90
13808;DHT22;40769;51.512;5.494;2023-02-22T05:18:14;9.40;99.90
13808;DHT22;40769;51.512;5.494;2023-02-22T05:20:40;9.40;99.90
13808;DHT22;40769;51.512;5.494;2023-02-22T05:23:06;9.50;99.90
13808;DHT22;40769;51.512;5.494;2023-02-22T05:25:32;9.40;99.90
13808;DHT22;40769;51.512;5.494;2023-02-22T05:28:11;9.40;99.90
13808;DHT22;40769;51.512;5.494;2023-02-22T05:30:37;9.50;99.90
13808;DHT22;40769;51.512;5.494;2023-02-22T05:33:06;10.40;99.90
13808;DHT22;40769;51.512;5.494;2023-02-22T05:35:32;9.50;99.90
13808;DHT22;40769;51.512;5.494;2023-02-22T05:37:58;9.50;99.90
13808;DHT22;40769;51.512;5.494;2023-02-22T05:40:27;9.60;99.90
13808;DHT22;40769;51.512;5.494;2023-02-22T05:42:54;9.40;99.90
13808;DHT22;40769;51.512;5.494;2023-02-22T05:45:23;10.60;99.90
13808;DHT22;40769;51.512;5.494;2023-02-22T05:47:49;9.50;99.90
13808;DHT22;40769;51.512;5.494;2023-02-22T05:50:16;9.50;99.90
13808;DHT22;40769;51.512;5.494;2023-02-22T05:52:42;9.50;99.90
13808;DHT22;40769;51.512;5.494;2023-02-22T05:55:09;10.10;99.90
13808;DHT22;40769;51.512;5.494;2023-02-22T05:57:35;10.20;99.90
13808;DHT22;40769;51.512;5.494;2023-02-22T06:00:02;9.60;99.90
13808;DHT22;40769;51.512;5.494;2023-02-22T06:02:28;10.70;99.90
13808;DHT22;40769;51.512;5.494;2023-02-22T06:04:54;9.50;99.90
13808;DHT22;40769;51.512;5.494;2023-02-22T06:07:19;9.50;99.90
13808;DHT22;40769;51.512;5.494;2023-02-22T06:09:45;9.60;99.90
13808;DHT22;40769;51.512;5.494;2023-02-22T06:12:11;9.60;99.90
13808;DHT22;40769;51.512;5.494;2023-02-22T06:14:36;9.50;99.90
13808;DHT22;40769;51.512;5.494;2023-02-22T06:17:02;9.60;99.90
13808;DHT22;40769;51.512;5.494;2023-02-22T06:19:29;9.80;99.90
13808;DHT22;40769;51.512;5.494;2023-02-22T06:21:56;9.50;99.90
13808;DHT22;40769;51.512;5.494;2023-02-22T06:24:24;9.50;99.90
13808;DHT22;40769;51.512;5.494;2023-02-22T06:26:55;10.50;99.90
13808;DHT22;40769;51.512;5.494;2023-02-22T06:29:24;9.50;99.90
13808;DHT22;40769;51.512;5.494;2023-02-22T06:31:50;9.50;99.90
13808;DHT22;40769;51.512;5.494;2023-02-22T06:34:17;9.50;99.90
13808;DHT22;40769;51.512;5.494;2023-02-22T06:36:43;9.40;99.90
13808;DHT22;40769;51.512;5.494;2023-02-22T06:39:09;9.80;99.90
13808;DHT22;40769;51.512;5.494;2023-02-22T06:41:38;9.50;99.90
13808;DHT22;40769;51.512;5.494;2023-02-22T06:44:04;9.40;99.90
13808;DHT22;40769;51.512;5.494;2023-02-22T06:46:30;9.50;99.90
13808;DHT22;40769;51.512;5.494;2023-02-22T06:48:56;9.50;99.90
13808;DHT22;40769;51.512;5.494;2023-02-22T06:51:24;9.50;99.90
13808;DHT22;40769;51.512;5.494;2023-02-22T06:53:50;9.50;99.90
13808;DHT22;40769;51.512;5.494;2023-02-22T06:56:16;9.50;99.90
13808;DHT22;40769;51.512;5.494;2023-02-22T06:58:41;9.50;99.90
13808;DHT22;40769;51.512;5.494;2023-02-22T07:01:07;9.50;99.90
13808;DHT22;40769;51.512;5.494;2023-02-22T07:03:33;9.60;99.90
13808;DHT22;40769;51.512;5.494;2023-02-22T07:06:00;9.90;99.90
13808;DHT22;40769;51.512;5.494;2023-02-22T07:08:27;9.70;99.90
13808;DHT22;40769;51.512;5.494;2023-02-22T07:10:52;9.70;99.90
13808;DHT22;40769;51.512;5.494;2023-02-22T07:13:18;9.70;99.90
13808;DHT22;40769;51.512;5.494;2023-02-22T07:15:44;9.70;99.90
13808;DHT22;40769;51.512;5.494;2023-02-22T07:18:09;9.70;99.90
13808;DHT22;40769;51.512;5.494;2023-02-22T07:20:36;9.80;99.90
13808;DHT22;40769;51.512;5.494;2023-02-22T07:23:03;9.80;99.90
13808;DHT22;40769;51.512;5.494;2023-02-22T07:25:29;9.80;99.90
13808;DHT22;40769;51.512;5.494;2023-02-22T07:27:55;9.80;99.90
13808;DHT22;40769;51.512;5.494;2023-02-22T07:30:26;9.80;99.90
13808;DHT22;40769;51.512;5.494;2023-02-22T07:32:56;9.80;99.90
13808;DHT22;40769;51.512;5.494;2023-02-22T07:35:44;9.80;99.90
13808;DHT22;40769;51.512;5.494;2023-02-22T07:38:08;9.80;99.90
13808;DHT22;40769;51.512;5.494;2023-02-22T07:40:34;9.80;99.90
13808;DHT22;40769;51.512;5.494;2023-02-22T07:43:04;9.70;99.90
13808;DHT22;40769;51.512;5.494;2023-02-22T07:45:35;10.40;99.90
13808;DHT22;40769;51.512;5.494;2023-02-22T07:48:02;9.80;99.90
13808;DHT22;40769;51.512;5.494;2023-02-22T07:50:30;9.80;99.90
13808;DHT22;40769;51.512;5.494;2023-02-22T07:52:58;9.80;99.90
13808;DHT22;40769;51.512;5.494;2023-02-22T07:55:26;9.90;99.90
13808;DHT22;40769;51.512;5.494;2023-02-22T07:57:54;10.00;99.90
13808;DHT22;40769;51.512;5.494;2023-02-22T08:00:28;10.00;99.90
13808;DHT22;40769;51.512;5.494;2023-02-22T08:02:54;10.00;99.90
13808;DHT22;40769;51.512;5.494;2023-02-22T08:05:23;10.10;99.90
13808;DHT22;40769;51.512;5.494;2023-02-22T08:07:48;10.10;99.90
13808;DHT22;40769;51.512;5.494;2023-02-22T08:10:16;11.10;99.90
13808;DHT22;40769;51.512;5.494;2023-02-22T08:12:41;10.10;99.90
13808;DHT22;40769;51.512;5.494;2023-02-22T08:15:13;10.80;99.90
13808;DHT22;40769;51.512;5.494;2023-02-22T08:17:39;10.20;99.90
13808;DHT22;40769;51.512;5.494;2023-02-22T08:20:05;10.20;99.90
13808;DHT22;40769;51.512;5.494;2023-02-22T08:22:31;10.20;99.90
13808;DHT22;40769;51.512;5.494;2023-02-22T08:24:56;10.30;99.90
13808;DHT22;40769;51.512;5.494;2023-02-22T08:27:23;11.40;99.90
13808;DHT22;40769;51.512;5.494;2023-02-22T08:29:50;10.30;99.90
13808;DHT22;40769;51.512;5.494;2023-02-22T08:32:16;10.40;99.90
13808;DHT22;40769;51.512;5.494;2023-02-22T08:34:42;10.70;99.90
13808;DHT22;40769;51.512;5.494;2023-02-22T08:37:07;10.40;99.90
13808;DHT22;40769;51.512;5.494;2023-02-22T08:39:33;10.50;99.90
13808;DHT22;40769;51.512;5.494;2023-02-22T08:41:59;11.10;99.90
13808;DHT22;40769;51.512;5.494;2023-02-22T08:44:24;10.60;99.90
13808;DHT22;40769;51.512;5.494;2023-02-22T08:46:50;10.60;99.90
13808;DHT22;40769;51.512;5.494;2023-02-22T08:49:16;10.70;99.90
13808;DHT22;40769;51.512;5.494;2023-02-22T08:51:42;10.70;99.90
13808;DHT22;40769;51.512;5.494;2023-02-22T08:54:08;10.80;99.90
13808;DHT22;40769;51.512;5.494;2023-02-22T08:56:33;11.30;99.90
13808;DHT22;40769;51.512;5.494;2023-02-22T08:58:59;10.90;99.90
13808;DHT22;40769;51.512;5.494;2023-02-22T09:01:25;11.00;99.90
13808;DHT22;40769;51.512;5.494;2023-02-22T09:03:50;11.50;99.90
13808;DHT22;40769;51.512;5.494;2023-02-22T09:06:17;11.50;99.90
13808;DHT22;40769;51.512;5.494;2023-02-22T09:08:43;11.10;99.90
13808;DHT22;40769;51.512;5.494;2023-02-22T09:11:11;11.50;99.90
13808;DHT22;40769;51.512;5.494;2023-02-22T09:13:36;11.30;99.90
13808;DHT22;40769;51.512;5.494;2023-02-22T09:16:02;11.30;99.90
13808;DHT22;40769;51.512;5.494;2023-02-22T09:18:28;11.40;99.90
13808;DHT22;40769;51.512;5.494;2023-02-22T09:20:53;12.00;99.90
13808;DHT22;40769;51.512;5.494;2023-02-22T09:23:20;12.70;99.90
13808;DHT22;40769;51.512;5.494;2023-02-22T09:25:49;11.70;99.90
13808;DHT22;40769;51.512;5.494;2023-02-22T09:28:14;11.60;99.90
13808;DHT22;40769;51.512;5.494;2023-02-22T09:30:41;11.70;99.90
13808;DHT22;40769;51.512;5.494;2023-02-22T09:33:12;11.80;99.90
13808;DHT22;40769;51.512;5.494;2023-02-22T09:35:39;11.90;99.90
13808;DHT22;40769;51.512;5.494;2023-02-22T09:38:12;12.00;99.90
13808;DHT22;40769;51.512;5.494;2023-02-22T09:40:42;12.90;99.90
13808;DHT22;40769;51.512;5.494;2023-02-22T09:48:26;12.50;99.90
13808;DHT22;40769;51.512;5.494;2023-02-22T09:50:58;13.70;99.90
13808;DHT22;40769;51.512;5.494;2023-02-22T09:53:32;12.80;99.90
13808;DHT22;40769;51.512;5.494;2023-02-22T09:56:11;12.90;99.90
13808;DHT22;40769;51.512;5.494;2023-02-22T09:58:42;13.10;99.90
13808;DHT22;40769;51.512;5.494;2023-02-22T10:01:32;13.10;99.90
13808;DHT22;40769;51.512;5.494;2023-02-22T10:06:48;13.40;99.90
13808;DHT22;40769;51.512;5.494;2023-02-22T10:09:17;14.50;99.90
13808;DHT22;40769;51.512;5.494;2023-02-22T10:12:22;13.70;99.90
13808;DHT22;40769;51.512;5.494;2023-02-22T10:15:14;13.80;99.90
13808;DHT22;40769;51.512;5.494;2023-02-22T10:20:52;14.20;99.90
13808;DHT22;40769;51.512;5.494;2023-02-22T10:31:22;14.80;99.90
13808;DHT22;40769;51.512;5.494;2023-02-22T10:34:01;14.90;99.90
13808;DHT22;40769;51.512;5.494;2023-02-22T10:36:28;15.00;99.90
13808;DHT22;40769;51.512;5.494;2023-02-22T10:38:58;15.20;99.90
13808;DHT22;40769;51.512;5.494;2023-02-22T10:41:31;15.30;99.90
13808;DHT22;40769;51.512;5.494;2023-02-22T10:43:57;15.40;99.90
13808;DHT22;40769;51.512;5.494;2023-02-22T10:46:24;15.40;99.90
13808;DHT22;40769;51.512;5.494;2023-02-22T10:48:54;15.50;99.90
13808;DHT22;40769;51.512;5.494;2023-02-22T10:51:21;15.60;99.90
13808;DHT22;40769;51.512;5.494;2023-02-22T10:54:02;15.70;99.90
13808;DHT22;40769;51.512;5.494;2023-02-22T10:56:52;15.80;99.90
13808;DHT22;40769;51.512;5.494;2023-02-22T10:59:37;16.00;99.90
13808;DHT22;40769;51.512;5.494;2023-02-22T11:02:22;16.10;99.90
13808;DHT22;40769;51.512;5.494;2023-02-22T11:04:51;16.20;99.90
13808;DHT22;40769;51.512;5.494;2023-02-22T11:07:21;16.40;99.90
13808;DHT22;40769;51.512;5.494;2023-02-22T11:09:53;16.50;99.90
13808;DHT22;40769;51.512;5.494;2023-02-22T11:12:30;16.60;99.90
13808;DHT22;40769;51.512;5.494;2023-02-22T11:14:57;16.70;99.90
13808;DHT22;40769;51.512;5.494;2023-02-22T11:17:51;16.90;99.90
13808;DHT22;40769;51.512;5.494;2023-02-22T11:20:29;17.00;99.90
13808;DHT22;40769;51.512;5.494;2023-02-22T11:23:02;17.10;99.90
13808;DHT22;40769;51.512;5.494;2023-02-22T11:25:32;17.10;99.90
13808;DHT22;40769;51.512;5.494;2023-02-22T11:28:07;17.20;99.90
13808;DHT22;40769;51.512;5.494;2023-02-22T11:30:34;17.70;99.90
13808;DHT22;40769;51.512;5.494;2023-02-22T11:38:30;17.40;99.90
13808;DHT22;40769;51.512;5.494;2023-02-22T11:41:15;17.40;99.90
13808;DHT22;40769;51.512;5.494;2023-02-22T11:43:43;17.40;99.90
13808;DHT22;40769;51.512;5.494;2023-02-22T11:46:21;17.50;99.90
13808;DHT22;40769;51.512;5.494;2023-02-22T11:56:41;17.50;99.90
13808;DHT22;40769;51.512;5.494;2023-02-22T12:07:24;17.50;99.90
13808;DHT22;40769;51.512;5.494;2023-02-22T12:12:41;17.50;99.90
13808;DHT22;40769;51.512;5.494;2023-02-22T12:15:40;17.50;99.90
13808;DHT22;40769;51.512;5.494;2023-02-22T12:18:30;17.50;99.90
13808;DHT22;40769;51.512;5.494;2023-02-22T12:21:00;17.50;99.90
13808;DHT22;40769;51.512;5.494;2023-02-22T12:23:44;17.40;99.90
13808;DHT22;40769;51.512;5.494;2023-02-22T12:26:34;17.40;99.90
13808;DHT22;40769;51.512;5.494;2023-02-22T12:31:58;17.30;99.90
13808;DHT22;40769;51.512;5.494;2023-02-22T12:34:32;17.40;99.90
13808;DHT22;40769;51.512;5.494;2023-02-22T12:39:38;17.20;99.90
13808;DHT22;40769;51.512;5.494;2023-02-22T12:42:15;17.20;99.90
13808;DHT22;40769;51.512;5.494;2023-02-22T12:44:45;17.20;99.90
13808;DHT22;40769;51.512;5.494;2023-02-22T12:47:22;17.10;99.90
13808;DHT22;40769;51.512;5.494;2023-02-22T12:50:02;17.00;99.90
13808;DHT22;40769;51.512;5.494;2023-02-22T12:52:41;16.90;99.90
13808;DHT22;40769;51.512;5.494;2023-02-22T12:55:51;16.70;99.90
13808;DHT22;40769;51.512;5.494;2023-02-22T12:58:17;16.60;99.90
13808;DHT22;40769;51.512;5.494;2023-02-22T13:00:55;16.40;99.90
13808;DHT22;40769;51.512;5.494;2023-02-22T13:03:36;16.30;99.90
13808;DHT22;40769;51.512;5.494;2023-02-22T13:11:42;15.80;99.90
13808;DHT22;40769;51.512;5.494;2023-02-22T13:17:24;15.50;99.90
13808;DHT22;40769;51.512;5.494;2023-02-22T13:23:02;15.20;99.90
13808;DHT22;40769;51.512;5.494;2023-02-22T13:28:28;15.00;99.90
13808;DHT22;40769;51.512;5.494;2023-02-22T13:48:45;14.80;99.90
13808;DHT22;40769;51.512;5.494;2023-02-22T13:56:51;14.80;99.90
13808;DHT22;40769;51.512;5.494;2023-02-22T13:59:31;14.80;99.90
13808;DHT22;40769;51.512;5.494;2023-02-22T14:01:59;14.80;99.90
13808;DHT22;40769;51.512;5.494;2023-02-22T14:06:55;14.80;99.90
13808;DHT22;40769;51.512;5.494;2023-02-22T14:09:47;14.80;99.90
13808;DHT22;40769;51.512;5.494;2023-02-22T14:12:48;14.80;99.90
13808;DHT22;40769;51.512;5.494;2023-02-22T14:15:17;14.80;99.90
13808;DHT22;40769;51.512;5.494;2023-02-22T14:17:47;14.80;99.90
13808;DHT22;40769;51.512;5.494;2023-02-22T14:22:40;14.80;99.90
13808;DHT22;40769;51.512;5.494;2023-02-22T14:27:55;14.80;99.90
13808;DHT22;40769;51.512;5.494;2023-02-22T14:30:25;14.70;99.90
13808;DHT22;40769;51.512;5.494;2023-02-22T14:32:51;14.70;99.90
13808;DHT22;40769;51.512;5.494;2023-02-22T14:35:17;14.70;99.90
13808;DHT22;40769;51.512;5.494;2023-02-22T14:37:50;15.30;99.90
13808;DHT22;40769;51.512;5.494;2023-02-22T14:45:29;14.70;99.90
13808;DHT22;40769;51.512;5.494;2023-02-22T14:53:39;15.60;99.90
13808;DHT22;40769;51.512;5.494;2023-02-22T15:01:32;14.80;99.90
13808;DHT22;40769;51.512;5.494;2023-02-22T15:04:28;14.80;99.90
13808;DHT22;40769;51.512;5.494;2023-02-22T15:06:56;14.90;99.90
13808;DHT22;40769;51.512;5.494;2023-02-22T15:09:28;15.00;99.90
13808;DHT22;40769;51.512;5.494;2023-02-22T15:14:31;15.00;99.90
13808;DHT22;40769;51.512;5.494;2023-02-22T15:17:35;15.00;99.90
13808;DHT22;40769;51.512;5.494;2023-02-22T15:19:54;15.10;99.90
13808;DHT22;40769;51.512;5.494;2023-02-22T15:22:26;15.80;99.90
13808;DHT22;40769;51.512;5.494;2023-02-22T15:25:00;15.10;99.90
13808;DHT22;40769;51.512;5.494;2023-02-22T15:27:26;15.10;99.90
13808;DHT22;40769;51.512;5.494;2023-02-22T15:30:00;15.10;99.90
13808;DHT22;40769;51.512;5.494;2023-02-22T15:37:36;16.30;99.90
13808;DHT22;40769;51.512;5.494;2023-02-22T15:40:07;15.00;99.90
13808;DHT22;40769;51.512;5.494;2023-02-22T15:42:57;15.00;99.90
13808;DHT22;40769;51.512;5.494;2023-02-22T15:45:24;14.90;99.90
13808;DHT22;40769;51.512;5.494;2023-02-22T15:47:51;15.60;99.90
13808;DHT22;40769;51.512;5.494;2023-02-22T15:50:22;14.90;99.90
13808;DHT22;40769;51.512;5.494;2023-02-22T15:53:02;14.80;99.90
13808;DHT22;40769;51.512;5.494;2023-02-22T15:55:36;14.80;99.90
13808;DHT22;40769;51.512;5.494;2023-02-22T16:00:40;14.70;99.90
13808;DHT22;40769;51.512;5.494;2023-02-22T16:03:12;14.70;99.90
13808;DHT22;40769;51.512;5.494;2023-02-22T16:05:43;14.60;99.90
13808;DHT22;40769;51.512;5.494;2023-02-22T16:08:18;14.60;99.90
13808;DHT22;40769;51.512;5.494;2023-02-22T16:10:57;15.40;99.90
13808;DHT22;40769;51.512;5.494;2023-02-22T16:13:25;14.70;99.90
13808;DHT22;40769;51.512;5.494;2023-02-22T16:15:59;14.50;99.90
13808;DHT22;40769;51.512;5.494;2023-02-22T16:21:16;14.50;99.90
13808;DHT22;40769;51.512;5.494;2023-02-22T16:23:48;14.40;99.90
13808;DHT22;40769;51.512;5.494;2023-02-22T16:26:22;14.40;99.90
13808;DHT22;40769;51.512;5.494;2023-02-22T16:28:54;14.60;99.90
13808;DHT22;40769;51.512;5.494;2023-02-22T16:31:22;14.30;99.90
13808;DHT22;40769;51.512;5.494;2023-02-22T16:33:50;14.30;99.90
13808;DHT22;40769;51.512;5.494;2023-02-22T16:36:16;14.30;99.90
13808;DHT22;40769;51.512;5.494;2023-02-22T16:38:43;14.20;99.90
13808;DHT22;40769;51.512;5.494;2023-02-22T16:41:11;14.50;99.90
13808;DHT22;40769;51.512;5.494;2023-02-22T16:43:38;14.20;99.90
13808;DHT22;40769;51.512;5.494;2023-02-22T16:46:04;14.20;99.90
13808;DHT22;40769;51.512;5.494;2023-02-22T16:48:31;14.20;99.90
13808;DHT22;40769;51.512;5.494;2023-02-22T16:51:00;14.10;99.90
13808;DHT22;40769;51.512;5.494;2023-02-22T16:53:27;14.10;99.90
13808;DHT22;40769;51.512;5.494;2023-02-22T16:55:59;14.10;99.90
13808;DHT22;40769;51.512;5.494;2023-02-22T16:58:27;14.00;99.90
13808;DHT22;40769;51.512;5.494;2023-02-22T17:00:54;14.00;99.90
13808;DHT22;40769;51.512;5.494;2023-02-22T17:03:22;14.00;99.90
13808;DHT22;40769;51.512;5.494;2023-02-22T17:05:48;14.00;99.90
13808;DHT22;40769;51.512;5.494;2023-02-22T17:08:15;14.00;99.90
13808;DHT22;40769;51.512;5.494;2023-02-22T17:10:41;13.90;99.90
13808;DHT22;40769;51.512;5.494;2023-02-22T17:13:07;14.00;99.90
13808;DHT22;40769;51.512;5.494;2023-02-22T17:15:34;14.00;99.90
13808;DHT22;40769;51.512;5.494;2023-02-22T17:18:01;14.00;99.90
13808;DHT22;40769;51.512;5.494;2023-02-22T17:20:34;13.90;99.90
13808;DHT22;40769;51.512;5.494;2023-02-22T17:23:03;14.50;99.90
13808;DHT22;40769;51.512;5.494;2023-02-22T17:26:08;13.90;99.90
13808;DHT22;40769;51.512;5.494;2023-02-22T17:28:28;13.90;99.90
13808;DHT22;40769;51.512;5.494;2023-02-22T17:30:56;13.90;99.90
13808;DHT22;40769;51.512;5.494;2023-02-22T17:33:29;13.90;99.90
13808;DHT22;40769;51.512;5.494;2023-02-22T17:35:59;13.90;99.90
13808;DHT22;40769;51.512;5.494;2023-02-22T17:38:26;13.80;99.90
13808;DHT22;40769;51.512;5.494;2023-02-22T17:40:54;13.80;99.90
13808;DHT22;40769;51.512;5.494;2023-02-22T17:43:21;14.30;99.90
13808;DHT22;40769;51.512;5.494;2023-02-22T17:45:48;13.80;99.90
13808;DHT22;40769;51.512;5.494;2023-02-22T17:48:14;14.60;99.90
13808;DHT22;40769;51.512;5.494;2023-02-22T17:50:42;13.80;99.90
13808;DHT22;40769;51.512;5.494;2023-02-22T17:53:09;13.80;99.90
13808;DHT22;40769;51.512;5.494;2023-02-22T17:55:39;13.90;99.90
13808;DHT22;40769;51.512;5.494;2023-02-22T17:58:06;13.90;99.90
13808;DHT22;40769;51.512;5.494;2023-02-22T18:00:35;13.90;99.90
13808;DHT22;40769;51.512;5.494;2023-02-22T18:03:05;13.50;99.90
13808;DHT22;40769;51.512;5.494;2023-02-22T18:05:32;15.00;99.90
13808;DHT22;40769;51.512;5.494;2023-02-22T18:07:58;14.20;99.90
13808;DHT22;40769;51.512;5.494;2023-02-22T18:10:24;14.00;99.90
13808;DHT22;40769;51.512;5.494;2023-02-22T18:12:51;14.00;99.90
13808;DHT22;40769;51.512;5.494;2023-02-22T18:15:19;14.00;99.90
13808;DHT22;40769;51.512;5.494;2023-02-22T18:17:53;14.20;99.90
13808;DHT22;40769;51.512;5.494;2023-02-22T18:20:18;14.00;99.90
13808;DHT22;40769;51.512;5.494;2023-02-22T18:23:06;14.00;99.90
13808;DHT22;40769;51.512;5.494;2023-02-22T18:25:34;14.00;99.90
13808;DHT22;40769;51.512;5.494;2023-02-22T18:28:01;14.00;99.90
13808;DHT22;40769;51.512;5.494;2023-02-22T18:30:28;14.10;99.90